createdAt,value
2022-12-18T00:01:21.512Z,102215.88
2022-12-18T00:03:49.195Z,102213.19
2022-12-18T00:06:16.559Z,102211.59
2022-12-18T00:08:44.016Z,102203.94
2022-12-18T00:11:13.393Z,102189.19
2022-12-18T00:13:40.658Z,102122.72
2022-12-18T00:16:11.785Z,102205.66
2022-12-18T00:18:38.652Z,102203.22
2022-12-18T00:21:07.560Z,102204.09
2022-12-18T00:23:35.985Z,102209.19
2022-12-18T00:26:04.819Z,102206.47
2022-12-18T00:28:31.989Z,102195.97
2022-12-18T00:31:01.747Z,102193.28
2022-12-18T00:33:30.294Z,102210.72
2022-12-18T00:36:01.587Z,102222.59
2022-12-18T00:38:28.253Z,102225.94
2022-12-18T00:40:54.755Z,102225.94
2022-12-18T00:43:21.409Z,102207.91
2022-12-18T00:45:47.975Z,102218.22
2022-12-18T00:48:14.608Z,102218.13
2022-12-18T00:50:42.771Z,102220.56
2022-12-18T00:53:09.561Z,102182.41
2022-12-18T00:55:36.153Z,102216.94
2022-12-18T00:58:02.910Z,102175.63
2022-12-18T01:00:29.469Z,102212.81
2022-12-18T01:02:56.125Z,102216.22
2022-12-18T01:05:23.046Z,102210.06
2022-12-18T01:07:50.988Z,102200.78
2022-12-18T01:10:17.833Z,102200.78
2022-12-18T01:12:44.539Z,102165.38
2022-12-18T01:15:13.392Z,102202.41
2022-12-18T01:17:40.017Z,102207.34
2022-12-18T01:20:08.249Z,102191.84
2022-12-18T01:22:34.870Z,102206.38
2022-12-18T01:25:03.706Z,102198.41
2022-12-18T01:27:31.986Z,102211.19
2022-12-18T01:29:58.498Z,102220.75
2022-12-18T01:32:25.918Z,102203.72
2022-12-18T01:34:52.614Z,102158.81
2022-12-18T01:37:19.985Z,102171.59
2022-12-18T01:39:46.515Z,102194.88
2022-12-18T01:42:16.296Z,102209.34
2022-12-18T01:44:56.176Z,102188.69
2022-12-18T01:47:26.404Z,102209.47
2022-12-18T01:49:53.944Z,102206.91
2022-12-18T01:52:22.679Z,102205.06
2022-12-18T01:54:51.565Z,102201.50
2022-12-18T01:57:20.608Z,102207.34
2022-12-18T01:59:52.694Z,102210.88
2022-12-18T02:02:20.237Z,102201.47
2022-12-18T02:04:49.562Z,102195.38
2022-12-18T02:07:25.825Z,102180.03
2022-12-18T02:09:59.287Z,102193.66
2022-12-18T02:12:35.724Z,102192.59
2022-12-18T02:15:08.997Z,102197.56
2022-12-18T02:17:43.771Z,102198.50
2022-12-18T02:20:18.124Z,102202.84
2022-12-18T02:22:56.776Z,102174.41
2022-12-18T02:25:41.013Z,102173.31
2022-12-18T02:28:13.031Z,102210.13
2022-12-18T02:30:42.112Z,102208.47
2022-12-18T02:33:11.973Z,102213.50
2022-12-18T02:35:41.605Z,102207.44
2022-12-18T02:38:09.248Z,102209.97
2022-12-18T02:40:39.443Z,102209.88
2022-12-18T02:43:10.753Z,102227.63
2022-12-18T02:45:46.751Z,102224.22
2022-12-18T02:48:14.359Z,102191.72
2022-12-18T02:50:51.253Z,102202.19
2022-12-18T02:53:27.209Z,102203.81
2022-12-18T02:55:59.707Z,102206.91
2022-12-18T02:58:35.181Z,102208.41
2022-12-18T03:01:15.051Z,102188.50
2022-12-18T03:03:47.679Z,102203.16
2022-12-18T03:06:21.612Z,102202.41
2022-12-18T03:08:53.941Z,102200.78
2022-12-18T03:11:21.243Z,102192.28
2022-12-18T03:13:57.132Z,102193.09
2022-12-18T03:16:27.637Z,102157.50
2022-12-18T03:18:58.373Z,102192.97
2022-12-18T03:21:29.816Z,102174.78
2022-12-18T03:23:57.656Z,102178.50
2022-12-18T03:26:29.142Z,102195.81
2022-12-18T03:29:05.619Z,102189.16
2022-12-18T03:31:33.676Z,102184.72
2022-12-18T03:34:05.339Z,102177.88
2022-12-18T03:36:40.446Z,102165.66
2022-12-18T03:39:07.597Z,102173.47
2022-12-18T03:41:44.815Z,102173.53
2022-12-18T03:44:30.001Z,102176.91
2022-12-18T03:47:04.629Z,102172.59
2022-12-18T03:49:36.373Z,102138.00
2022-12-18T03:52:08.118Z,102168.00
2022-12-18T03:54:36.289Z,102164.59
2022-12-18T03:57:15.397Z,102159.47
2022-12-18T03:59:44.962Z,102157.84
2022-12-18T04:02:16.824Z,102152.69
2022-12-18T04:04:45.144Z,102122.47
2022-12-18T04:07:14.218Z,102143.28
2022-12-18T04:09:46.400Z,102100.94
2022-12-18T04:12:14.072Z,102147.56
2022-12-18T04:14:40.837Z,102145.22
2022-12-18T04:17:10.711Z,102141.81
2022-12-18T04:19:37.424Z,102148.66
2022-12-18T04:22:04.240Z,102161.38
2022-12-18T04:24:38.089Z,102153.44
2022-12-18T04:27:15.154Z,102157.66
2022-12-18T04:29:46.757Z,102152.41
2022-12-18T04:32:16.094Z,102152.38
2022-12-18T04:34:44.321Z,102160.72
2022-12-18T04:37:11.013Z,102157.41
2022-12-18T04:39:37.641Z,102154.13
2022-12-18T04:42:10.258Z,102104.81
2022-12-18T04:44:37.141Z,102147.09
2022-12-18T04:47:03.987Z,102153.09
2022-12-18T04:49:32.037Z,102131.44
2022-12-18T04:51:58.578Z,102149.59
2022-12-18T04:54:25.112Z,102146.09
2022-12-18T04:56:51.647Z,102146.88
2022-12-18T04:59:18.256Z,102158.63
2022-12-18T05:01:44.767Z,102156.88
2022-12-18T05:04:11.563Z,102150.13
2022-12-18T05:06:39.451Z,102136.53
2022-12-18T05:09:06.154Z,102140.75
2022-12-18T05:11:32.663Z,102147.69
2022-12-18T05:13:59.332Z,102143.69
2022-12-18T05:16:25.941Z,102146.25
2022-12-18T05:18:52.557Z,102126.41
2022-12-18T05:21:19.119Z,102140.25
2022-12-18T05:23:47.072Z,102138.63
2022-12-18T05:26:17.286Z,102114.75
2022-12-18T05:28:44.764Z,102125.03
2022-12-18T05:31:11.288Z,102121.84
2022-12-18T05:33:38.910Z,102118.97
2022-12-18T05:36:08.068Z,102122.56
2022-12-18T05:38:36.636Z,102128.28
2022-12-18T05:41:05.734Z,102105.94
2022-12-18T05:43:34.328Z,102114.31
2022-12-18T05:46:05.212Z,102126.41
2022-12-18T05:48:31.775Z,102123.00
2022-12-18T05:51:04.534Z,102098.88
2022-12-18T05:53:31.095Z,102098.56
2022-12-18T05:56:01.148Z,102130.44
2022-12-18T05:58:29.170Z,102136.34
2022-12-18T06:00:55.669Z,102145.81
2022-12-18T06:03:22.253Z,102144.09
2022-12-18T06:05:49.167Z,102143.16
2022-12-18T06:08:15.793Z,102151.59
2022-12-18T06:10:42.840Z,102155.69
2022-12-18T06:13:09.730Z,102165.13
2022-12-18T06:15:38.737Z,102159.97
2022-12-18T06:18:05.419Z,102162.63
2022-12-18T06:20:33.609Z,102181.50
2022-12-18T06:23:00.801Z,102183.25
2022-12-18T06:25:27.316Z,102183.16
2022-12-18T06:27:54.009Z,102178.97
2022-12-18T06:30:20.721Z,102185.84
2022-12-18T06:32:56.108Z,102186.66
2022-12-18T06:35:24.033Z,102193.53
2022-12-18T06:37:50.923Z,102193.56
2022-12-18T06:40:17.869Z,102186.78
2022-12-18T06:42:44.399Z,102003.84
2022-12-18T06:45:11.437Z,102189.25
2022-12-18T06:47:37.914Z,102187.56
2022-12-18T06:50:07.005Z,102185.03
2022-12-18T06:52:33.510Z,102177.22
2022-12-18T06:55:00.172Z,102164.31
2022-12-18T06:57:26.692Z,102161.78
2022-12-18T06:59:53.227Z,102145.25
2022-12-18T07:02:19.872Z,102169.38
2022-12-18T07:04:46.568Z,102156.69
2022-12-18T07:07:14.492Z,102154.84
2022-12-18T07:09:41.052Z,102159.22
2022-12-18T07:12:07.609Z,102166.69
2022-12-18T07:14:34.419Z,102176.97
2022-12-18T07:17:01.128Z,102176.03
2022-12-18T07:19:28.199Z,102176.16
2022-12-18T07:21:55.850Z,102177.03
2022-12-18T07:24:23.747Z,102187.19
2022-12-18T07:26:50.329Z,102195.63
2022-12-18T07:29:16.884Z,102198.31
2022-12-18T07:31:43.558Z,102195.72
2022-12-18T07:34:11.607Z,102196.75
2022-12-18T07:36:38.310Z,102198.44
2022-12-18T07:39:04.935Z,102194.09
2022-12-18T07:41:32.830Z,102182.81
2022-12-18T07:44:10.125Z,102189.94
2022-12-18T07:46:36.743Z,102185.78
2022-12-18T07:49:03.301Z,102181.69
2022-12-18T07:51:32.714Z,102181.00
2022-12-18T07:53:59.260Z,102176.78
2022-12-18T07:56:28.545Z,102177.53
2022-12-18T07:58:56.864Z,102173.25
2022-12-18T08:01:23.636Z,102174.31
2022-12-18T08:03:52.513Z,102162.22
2022-12-18T08:06:19.565Z,102173.31
2022-12-18T08:08:49.201Z,102166.53
2022-12-18T08:11:16.513Z,102165.09
2022-12-18T08:13:43.393Z,102161.00
2022-12-18T08:16:11.433Z,102151.78
2022-12-18T08:18:38.301Z,102142.63
2022-12-18T08:21:11.585Z,102127.47
2022-12-18T08:23:42.631Z,102100.88
2022-12-18T08:26:10.121Z,102119.31
2022-12-18T08:28:36.644Z,102119.28
2022-12-18T08:31:03.495Z,102109.03
2022-12-18T08:33:31.672Z,102112.44
2022-12-18T08:36:00.202Z,102104.00
2022-12-18T08:38:26.996Z,102113.59
2022-12-18T08:40:59.381Z,102110.34
2022-12-18T08:43:26.001Z,102052.09
2022-12-18T08:45:52.582Z,102089.13
2022-12-18T08:48:22.118Z,102094.50
2022-12-18T08:50:56.333Z,102114.16
2022-12-18T08:53:22.947Z,102119.38
2022-12-18T08:55:50.629Z,102114.44
2022-12-18T08:58:17.286Z,102112.91
2022-12-18T09:00:43.797Z,102118.22
2022-12-18T09:03:12.744Z,102119.31
2022-12-18T09:05:39.317Z,102115.28
2022-12-18T09:08:07.516Z,102082.03
2022-12-18T09:10:38.795Z,102105.91
2022-12-18T09:13:08.321Z,102100.34
2022-12-18T09:15:34.800Z,102084.94
2022-12-18T09:18:01.375Z,102098.09
2022-12-18T09:20:27.906Z,102099.81
2022-12-18T09:22:54.447Z,102105.16
2022-12-18T09:25:22.331Z,102104.38
2022-12-18T09:27:50.076Z,102059.69
2022-12-18T09:30:16.669Z,102098.03
2022-12-18T09:32:43.261Z,102097.38
2022-12-18T09:35:09.995Z,102100.03
2022-12-18T09:37:36.539Z,102091.81
2022-12-18T09:40:03.643Z,102074.84
2022-12-18T09:42:31.794Z,102070.78
2022-12-18T09:45:00.456Z,102075.38
2022-12-18T09:47:31.500Z,102075.56
2022-12-18T09:50:01.947Z,102061.16
2022-12-18T09:52:34.930Z,102070.06
2022-12-18T09:55:06.922Z,102045.47
2022-12-18T09:57:38.184Z,102065.59
2022-12-18T10:00:12.429Z,102064.22
2022-12-18T10:02:39.460Z,102050.94
2022-12-18T10:05:08.302Z,102048.59
2022-12-18T10:07:54.915Z,102050.47
2022-12-18T10:10:32.893Z,102032.78
2022-12-18T10:13:16.402Z,102018.50
2022-12-18T10:15:56.578Z,102027.47
2022-12-18T10:18:35.884Z,102037.13
2022-12-18T10:21:10.740Z,102033.00
2022-12-18T10:23:48.203Z,102021.97
2022-12-18T10:26:15.869Z,102021.19
2022-12-18T10:28:45.781Z,102021.16
2022-12-18T10:31:16.893Z,102022.81
2022-12-18T10:33:43.667Z,102020.97
2022-12-18T10:36:10.490Z,102017.34
2022-12-18T10:38:37.683Z,102012.91
2022-12-18T10:41:06.904Z,102010.16
2022-12-18T10:43:35.417Z,102011.63
2022-12-18T10:46:15.129Z,102007.19
2022-12-18T10:48:50.902Z,102006.03
2022-12-18T10:51:22.427Z,101996.41
2022-12-18T10:53:56.438Z,102004.03
2022-12-18T10:56:24.670Z,102002.13
2022-12-18T10:58:58.480Z,102011.41
2022-12-18T11:01:26.605Z,101998.47
2022-12-18T11:04:02.813Z,102003.38
2022-12-18T11:06:30.330Z,101995.66
2022-12-18T11:09:01.644Z,101994.69
2022-12-18T11:11:29.580Z,102004.97
2022-12-18T11:14:03.194Z,101984.06
2022-12-18T11:16:35.617Z,101994.50
2022-12-18T11:19:20.431Z,101996.03
2022-12-18T11:21:47.903Z,101967.53
2022-12-18T11:24:21.803Z,101986.38
2022-12-18T11:26:52.668Z,101990.69
2022-12-18T11:29:28.133Z,101988.88
2022-12-18T11:32:32.450Z,101991.25
2022-12-18T11:35:05.391Z,101991.25
2022-12-18T11:37:33.695Z,101992.09
2022-12-18T11:40:07.368Z,101972.03
2022-12-18T11:42:39.288Z,102000.84
2022-12-18T11:45:24.284Z,101988.09
2022-12-18T11:47:58.653Z,101921.09
2022-12-18T11:50:27.666Z,101971.28
2022-12-18T11:52:58.210Z,101956.72
2022-12-18T11:55:38.012Z,101986.00
2022-12-18T11:58:13.576Z,101980.09
2022-12-18T12:00:47.342Z,101964.50
2022-12-18T12:03:28.406Z,101971.59
2022-12-18T12:06:09.007Z,101966.41
2022-12-18T12:08:48.438Z,101941.69
2022-12-18T12:11:21.915Z,101958.91
2022-12-18T12:14:00.381Z,101948.44
2022-12-18T12:16:33.696Z,101955.38
2022-12-18T12:19:16.499Z,101956.31
2022-12-18T12:21:48.094Z,101957.97
2022-12-18T12:24:31.374Z,101962.25
2022-12-18T12:27:09.431Z,101961.53
2022-12-18T12:29:47.383Z,101940.06
2022-12-18T12:32:27.278Z,101955.47
2022-12-18T12:35:12.099Z,101950.19
2022-12-18T12:37:50.807Z,101952.13
2022-12-18T12:40:51.152Z,101939.25
2022-12-18T12:43:26.119Z,101918.75
2022-12-18T12:45:56.628Z,101938.25
2022-12-18T12:48:36.772Z,101942.59
2022-12-18T12:51:13.349Z,101941.94
2022-12-18T12:53:41.451Z,101940.06
2022-12-18T12:56:12.323Z,101935.06
2022-12-18T12:58:46.695Z,101908.53
2022-12-18T13:01:23.537Z,101934.19
2022-12-18T13:03:59.002Z,101929.09
2022-12-18T13:06:54.138Z,101918.75
2022-12-18T13:09:22.561Z,101915.09
2022-12-18T13:11:52.579Z,101888.75
2022-12-18T13:14:25.618Z,101925.53
2022-12-18T13:16:52.336Z,101914.56
2022-12-18T13:19:27.304Z,101911.06
2022-12-18T13:21:56.800Z,101921.38
2022-12-18T13:24:29.091Z,101908.34
2022-12-18T13:26:56.290Z,101910.00
2022-12-18T13:29:43.186Z,101894.56
2022-12-18T13:32:21.565Z,101889.34
2022-12-18T13:34:50.247Z,101898.94
2022-12-18T13:37:43.752Z,101893.94
2022-12-18T13:40:58.463Z,101891.16
2022-12-18T13:43:29.566Z,101907.53
2022-12-18T13:46:17.859Z,101914.47
2022-12-18T13:48:51.930Z,101873.31
2022-12-18T13:51:20.994Z,101915.09
2022-12-18T13:53:52.798Z,101917.59
2022-12-18T13:56:23.605Z,101845.84
2022-12-18T13:59:12.883Z,101910.00
2022-12-18T14:01:44.122Z,101913.47
2022-12-18T14:04:12.499Z,101910.00
2022-12-18T14:06:39.302Z,101896.25
2022-12-18T14:09:11.476Z,101895.56
2022-12-18T14:11:39.672Z,101899.00
2022-12-18T14:14:07.829Z,101898.84
2022-12-18T14:16:35.391Z,101897.28
2022-12-18T14:19:13.844Z,101894.56
2022-12-18T14:21:47.805Z,101885.03
2022-12-18T14:24:19.769Z,101892.09
2022-12-18T14:26:47.442Z,101881.81
2022-12-18T14:29:26.697Z,101881.91
2022-12-18T14:32:11.798Z,101890.41
2022-12-18T14:34:41.767Z,101882.81
2022-12-18T14:37:11.165Z,101894.88
2022-12-18T14:39:39.204Z,101890.56
2022-12-18T14:42:05.765Z,101885.31
2022-12-18T14:44:44.302Z,101876.66
2022-12-18T14:47:18.671Z,101881.81
2022-12-18T14:49:45.628Z,101868.94
2022-12-18T14:52:23.594Z,101872.47
2022-12-18T14:54:52.726Z,101849.47
2022-12-18T14:57:23.535Z,101867.47
2022-12-18T14:59:50.760Z,101866.66
2022-12-18T15:02:23.271Z,101859.63
2022-12-18T15:05:01.585Z,101868.31
2022-12-18T15:07:28.244Z,101838.53
2022-12-18T15:10:10.934Z,101860.66
2022-12-18T15:12:40.867Z,101830.88
2022-12-18T15:15:40.657Z,101841.03
2022-12-18T15:18:14.021Z,101846.06
2022-12-18T15:20:42.708Z,101840.97
2022-12-18T15:23:15.682Z,101840.88
2022-12-18T15:25:43.732Z,101838.28
2022-12-18T15:28:20.399Z,101843.44
2022-12-18T15:31:00.152Z,101816.28
2022-12-18T15:33:30.629Z,101840.09
2022-12-18T15:35:58.866Z,101844.28
2022-12-18T15:38:25.405Z,101851.38
2022-12-18T15:40:53.648Z,101855.00
2022-12-18T15:43:22.264Z,101855.69
2022-12-18T15:45:48.796Z,101862.69
2022-12-18T15:48:21.056Z,101860.88
2022-12-18T15:50:47.727Z,101849.06
2022-12-18T15:53:14.311Z,101851.47
2022-12-18T15:55:40.857Z,101857.44
2022-12-18T15:58:11.269Z,101844.88
2022-12-18T16:00:40.859Z,101863.72
2022-12-18T16:03:07.583Z,101861.16
2022-12-18T16:05:34.428Z,101854.28
2022-12-18T16:08:00.970Z,101848.38
2022-12-18T16:10:28.060Z,101865.50
2022-12-18T16:12:54.598Z,101849.97
2022-12-18T16:15:24.942Z,101856.84
2022-12-18T16:17:54.571Z,101849.38
2022-12-18T16:20:22.447Z,101869.19
2022-12-18T16:22:49.685Z,101869.91
2022-12-18T16:25:19.513Z,101859.63
2022-12-18T16:27:46.147Z,101842.50
2022-12-18T16:30:15.923Z,101861.38
2022-12-18T16:32:44.238Z,101848.53
2022-12-18T16:35:12.349Z,101848.44
2022-12-18T16:37:39.721Z,101853.72
2022-12-18T16:40:07.566Z,101832.31
2022-12-18T16:42:34.301Z,101855.47
2022-12-18T16:45:00.828Z,101864.97
2022-12-18T16:47:27.764Z,101862.31
2022-12-18T16:49:55.733Z,101856.34
2022-12-18T16:52:22.779Z,101841.06
2022-12-18T16:54:49.320Z,101854.63
2022-12-18T16:57:18.822Z,101841.56
2022-12-18T16:59:48.370Z,101839.16
2022-12-18T17:02:19.110Z,101836.63
2022-12-18T17:04:47.656Z,101835.69
2022-12-18T17:07:16.073Z,101834.94
2022-12-18T17:09:42.893Z,101796.53
2022-12-18T17:12:09.681Z,101827.94
2022-12-18T17:14:36.560Z,101828.91
2022-12-18T17:19:50.212Z,101836.69
2022-12-18T17:22:18.459Z,101837.41
2022-12-18T17:24:46.294Z,101835.06
2022-12-18T17:27:12.849Z,101788.88
2022-12-18T17:29:45.340Z,101800.69
2022-12-18T17:32:15.297Z,101816.84
2022-12-18T17:34:41.925Z,101831.56
2022-12-18T17:37:09.071Z,101826.47
2022-12-18T17:39:37.287Z,101826.44
2022-12-18T17:42:06.152Z,101811.03
2022-12-18T17:44:35.376Z,101835.94
2022-12-18T17:47:02.261Z,101828.97
2022-12-18T17:49:29.201Z,101828.19
2022-12-18T17:51:59.043Z,101837.59
2022-12-18T17:54:28.831Z,101828.09
2022-12-18T17:56:56.968Z,101821.19
2022-12-18T17:59:23.735Z,101816.91
2022-12-18T18:01:50.444Z,101793.00
2022-12-18T18:04:17.722Z,101813.53
2022-12-18T18:06:46.869Z,101814.47
2022-12-18T18:09:16.259Z,101814.34
2022-12-18T18:11:43.807Z,101821.41
2022-12-18T18:14:17.684Z,101816.97
2022-12-18T18:16:47.105Z,101812.72
2022-12-18T18:19:17.285Z,101784.47
2022-12-18T18:21:46.455Z,101805.69
2022-12-18T18:24:15.286Z,101803.28
2022-12-18T18:26:42.391Z,101813.63
2022-12-18T18:29:30.623Z,101808.38
2022-12-18T18:32:01.007Z,101796.41
2022-12-18T18:34:34.612Z,101808.47
2022-12-18T18:37:03.710Z,101804.91
2022-12-18T18:39:30.393Z,101792.09
2022-12-18T18:41:57.418Z,101765.47
2022-12-18T18:44:25.747Z,101792.72
2022-12-18T18:46:55.907Z,101765.34
2022-12-18T18:49:27.151Z,101789.28
2022-12-18T18:51:54.747Z,101791.84
2022-12-18T18:54:21.347Z,101783.41
2022-12-18T18:57:19.856Z,101796.78
2022-12-18T18:59:35.665Z,101790.94
2022-12-18T19:02:06.449Z,101804.63
2022-12-18T19:04:34.180Z,101796.94
2022-12-18T19:07:01.148Z,101789.97
2022-12-18T19:09:28.726Z,101799.41
2022-12-18T19:11:56.026Z,101795.16
2022-12-18T19:14:23.712Z,101784.69
2022-12-18T19:16:50.597Z,101789.88
2022-12-18T19:19:18.736Z,101681.38
2022-12-18T19:21:47.109Z,101783.75
2022-12-18T19:24:13.705Z,101778.56
2022-12-18T19:26:40.207Z,101779.47
2022-12-18T19:29:10.786Z,101787.22
2022-12-18T19:31:37.866Z,101747.66
2022-12-18T19:34:05.497Z,101775.91
2022-12-18T19:36:35.281Z,101775.94
2022-12-18T19:39:06.940Z,101772.44
2022-12-18T19:41:33.986Z,101787.72
2022-12-18T19:44:07.564Z,101699.81
2022-12-18T19:46:35.653Z,101781.81
2022-12-18T19:49:03.028Z,101789.50
2022-12-18T19:51:31.328Z,101776.50
2022-12-18T19:54:01.724Z,101777.34
2022-12-18T19:56:31.422Z,101785.03
2022-12-18T19:58:58.331Z,101743.81
2022-12-18T20:01:26.743Z,101775.41
2022-12-18T20:03:55.257Z,101765.19
2022-12-18T20:06:26.640Z,101759.03
2022-12-18T20:09:00.438Z,101775.25
2022-12-18T20:11:29.498Z,101774.38
2022-12-18T20:13:56.496Z,101780.41
2022-12-18T20:16:23.255Z,101735.78
2022-12-18T20:18:49.930Z,101768.09
2022-12-18T20:21:18.030Z,101770.75
2022-12-18T20:23:45.106Z,101778.44
2022-12-18T20:26:11.975Z,101772.41
2022-12-18T20:28:40.752Z,101776.63
2022-12-18T20:31:08.389Z,101770.53
2022-12-18T20:33:37.296Z,101764.44
2022-12-18T20:36:06.796Z,101764.44
2022-12-18T20:38:35.183Z,101782.44
2022-12-18T20:41:07.281Z,101769.44
2022-12-18T20:43:34.329Z,101704.66
2022-12-18T20:46:03.857Z,101784.19
2022-12-18T20:48:31.178Z,101781.63
2022-12-18T20:50:58.467Z,101769.72
2022-12-18T20:53:27.943Z,101775.53
2022-12-18T20:55:54.889Z,101766.06
2022-12-18T20:58:21.483Z,101775.53
2022-12-18T21:00:48.105Z,101749.84
2022-12-18T21:03:16.512Z,101768.53
2022-12-18T21:05:43.320Z,101782.84
2022-12-18T21:08:09.973Z,101770.06
2022-12-18T21:10:39.318Z,101752.81
2022-12-18T21:13:08.682Z,101772.72
2022-12-18T21:15:35.285Z,101774.28
2022-12-18T21:18:01.838Z,101772.59
2022-12-18T21:20:29.764Z,101776.88
2022-12-18T21:22:57.688Z,101771.75
2022-12-18T21:25:35.550Z,101772.38
2022-12-18T21:28:02.047Z,101764.63
2022-12-18T21:30:28.988Z,101759.44
2022-12-18T21:32:55.668Z,101760.97
2022-12-18T21:35:22.261Z,101762.78
2022-12-18T21:37:52.373Z,101761.72
2022-12-18T21:40:19.013Z,101759.06
2022-12-18T21:42:45.527Z,101762.53
2022-12-18T21:45:12.055Z,101761.78
2022-12-18T21:47:38.632Z,101769.53
2022-12-18T21:50:06.137Z,101762.31
2022-12-18T21:52:32.995Z,101764.91
2022-12-18T21:55:06.650Z,101756.28
2022-12-18T21:57:34.896Z,101764.06
2022-12-18T22:00:01.565Z,101739.44
2022-12-18T22:02:39.255Z,101764.91
2022-12-18T22:05:06.853Z,101766.63
2022-12-18T22:07:33.744Z,101751.78
2022-12-18T22:10:02.030Z,101755.25
2022-12-18T22:12:28.902Z,101703.66
2022-12-18T22:14:55.498Z,101683.25
2022-12-18T22:17:21.996Z,101733.63
2022-12-18T22:19:49.383Z,101725.06
2022-12-18T22:22:15.902Z,101726.84
2022-12-18T22:24:42.480Z,101701.75
2022-12-18T22:27:10.446Z,101715.25
2022-12-18T22:29:37.022Z,101714.28
2022-12-18T22:32:04.474Z,101713.41
2022-12-18T22:34:36.309Z,101703.00
2022-12-18T22:37:03.556Z,101703.13
2022-12-18T22:39:30.552Z,101692.91
2022-12-18T22:41:57.835Z,101680.84
2022-12-18T22:44:26.197Z,101699.59
2022-12-18T22:47:05.478Z,101709.09
2022-12-18T22:49:35.683Z,101709.22
2022-12-18T22:52:02.731Z,101702.16
2022-12-18T22:54:29.551Z,101693.28
2022-12-18T22:56:56.609Z,101683.66
2022-12-18T22:59:23.703Z,101664.56
2022-12-18T23:01:58.407Z,101677.69
2022-12-18T23:04:26.050Z,101680.31
2022-12-18T23:06:54.633Z,101667.59
2022-12-18T23:09:21.310Z,101686.03
2022-12-18T23:11:48.246Z,101689.31
2022-12-18T23:14:15.446Z,101676.44
2022-12-18T23:16:43.169Z,101632.81
2022-12-18T23:19:14.612Z,101639.34
2022-12-18T23:21:41.217Z,101672.72
2022-12-18T23:24:08.414Z,101671.88
2022-12-18T23:26:35.074Z,101672.78
2022-12-18T23:29:02.513Z,101664.94
2022-12-18T23:31:30.888Z,101652.09
2022-12-18T23:33:59.355Z,101620.47
2022-12-18T23:36:27.545Z,101648.38
2022-12-18T23:38:57.493Z,101649.25
2022-12-18T23:41:26.387Z,101647.28
2022-12-18T23:43:54.045Z,101642.25
2022-12-18T23:46:22.432Z,101642.94
2022-12-18T23:48:49.642Z,101635.13
2022-12-18T23:51:18.344Z,101630.88
2022-12-18T23:53:46.499Z,101632.59
2022-12-18T23:56:13.643Z,101631.72
2022-12-18T23:58:40.495Z,101617.03
